Avon, Maine
Current Conditions -  °F | °C
As of 12:35 AM on Thursday 18 Dec 2014 (Local Time) from KWVL Reporting Station
Overcast Overcast  
Wind Chill: 28°   Ceiling: 800
Heat Index: 34°   Visibility: 9mi
Dew Point: 30°   Wind: 7mph
Humidity: 87%   Direction: 340°NNW
Pressure: 29.59"   Gusts: NA
Location:  44.8921°N, 70.379°W
Report Text: KWVL 180535Z 34006KT 9SM OVC008 01/M01 A2959 RMK AO1
Loading
Personal Weather Stations






























Interactive Weather Map New forecast layout! Learn more

10-Day Weather Forecast

Advertisements
Track Severe Weather on mobile